Flight Track Log - Related Links

Times and Time Zones

All times are in EST time to prevent confusion due to time zone crossing. See the FSR302 flight status page for this flight to view local times or setup timezone preferences in your user account.

Time Position Orientation Groundspeed Altitude Reporting Facility
EST Latitude Longitude Course Direction KTS MPH feet Rate Location/Type
Wed 11:26:35 AM 30.2125 -81.8783 257° West 173 199 700  Level Jacksonville Center
Wed 11:28:17 AM 30.1942 -81.9697 257° West 234 269 4,600 2,534 Climbing Jacksonville Center
Wed 11:29:16 AM 30.2094 -82.0514 282° West 239 275 7,500 3,227 Climbing Jacksonville Center
Wed 11:30:16 AM 30.2350 -82.1353 289° West 265 305 11,000 3,150 Climbing Jacksonville Center
Wed 11:31:16 AM 30.2731 -82.2358 294° West 302 348 13,800 3,200 Climbing Jacksonville Center
Wed 11:32:16 AM 30.3800 -82.3025 332° Northwest 345 397 17,400 3,150 Climbing Jacksonville Center
Wed 11:33:16 AM 30.4742 -82.3550 334° Northwest 394 453 20,100 2,500 Climbing Jacksonville Center
Wed 11:34:16 AM 30.5850 -82.4147 335° Northwest 417 480 22,400 1,450 Climbing Jacksonville Center
Wed 11:35:16 AM 30.6981 -82.4769 335° Northwest 433 498 23,000 750 Climbing Jacksonville Center
Wed 11:36:16 AM 30.8172 -82.5442 334° Northwest 453 521 23,900 1,450 Climbing Jacksonville Center
Wed 11:37:16 AM 30.9364 -82.6092 335° Northwest 467 537 25,900 1,600 Climbing Jacksonville Center
Wed 11:38:16 AM 31.0661 -82.6792 335° Northwest 485 558 27,100 1,450 Climbing Jacksonville Center
Wed 11:39:16 AM 31.1894 -82.7492 334° Northwest 490 564 28,800 1,550 Climbing Jacksonville Center
Wed 11:40:16 AM 31.3147 -82.8172 335° Northwest 490 564 30,200 1,400 Climbing Jacksonville Center
Wed 11:41:16 AM 31.4442 -82.8853 336° Northwest 490 564 31,600 1,298 Climbing Jacksonville Center
Wed 11:43:44 AM 31.7636 -83.0692 334° Northwest 489 563 34,700 981 Climbing Atlanta Center
Wed 11:44:44 AM 31.8831 -83.1339 335° Northwest 484 557 35,000 400 Climbing Atlanta Center
Wed 11:45:44 AM 32.0067 -83.2036 334° Northwest 484 557 35,500 750 Climbing Atlanta Center
Wed 11:46:44 AM 32.1283 -83.2711 335° Northwest 484 557 36,500 1,000 Climbing Atlanta Center
Wed 11:47:44 AM 32.2497 -83.3414 334° Northwest 484 557 37,500 1,000 Climbing Atlanta Center
Wed 11:49:00 AM 32.3787 -83.4109 336° Northwest  Level FlightAware Approximate
Wed 11:49:44 AM 32.4864 -83.4775 336° Northwest 477 549 39,500  Level Atlanta Center
Wed 11:50:44 AM 32.5972 -83.5408 334° Northwest 463 533 40,000 250 Climbing Atlanta Center
Wed 11:51:44 AM 32.7122 -83.6042 335° Northwest 451 519 40,000  Level Atlanta Center
Wed 11:52:44 AM 32.8231 -83.6706 333° Northwest 451 519 40,000  Level Atlanta Center
Wed 11:54:00 AM 32.9584 -83.7256 335° Northwest  Level FlightAware Approximate
Wed 11:55:44 AM 33.1575 -83.8628 335° Northwest 445 512 40,000  Level Atlanta Center
Wed 11:56:44 AM 33.2703 -83.9269 335° Northwest 445 512 40,000  Level Atlanta Center
Wed 11:57:44 AM 33.3808 -83.9917 334° Northwest 445 512 40,000  Level Atlanta Center
Wed 11:58:44 AM 33.4917 -84.0589 333° Northwest 445 512 40,000  Level Atlanta Center
Wed 11:59:44 AM 33.6022 -84.1211 335° Northwest 445 512 40,000  Level Atlanta Center
Wed 12:00:44 PM 33.7147 -84.1886 333° Northwest 445 512 40,000  Level Atlanta Center
Wed 12:01:00 PM 33.6603 -84.1410 335° Northwest  Level FlightAware Approximate
Wed 12:01:44 PM 33.8275 -84.2514 335° Northwest 445 512 40,000  Level Atlanta Center
Wed 12:02:44 PM 33.9422 -84.3142 336° Northwest 445 512 40,000  Level Atlanta Center
Wed 12:03:44 PM 34.0547 -84.3822 333° Northwest 445 512 40,000  Level Atlanta Center
Wed 12:04:44 PM 34.1631 -84.4531 332° Northwest 445 512 40,000  Level Atlanta Center
Wed 12:05:44 PM 34.2714 -84.5164 334° Northwest 435 501 40,000  Level Atlanta Center
Wed 12:06:44 PM 34.3858 -84.5850 334° Northwest 442 509 40,000  Level Atlanta Center
Wed 12:07:44 PM 34.4981 -84.6536 333° Northwest 447 514 40,000  Level Atlanta Center
Wed 12:08:44 PM 34.6125 -84.7253 333° Northwest 447 514 40,000  Level Atlanta Center
Wed 12:09:44 PM 34.7186 -84.7919 333° Northwest 442 509 40,000  Level Atlanta Center
Wed 12:10:44 PM 34.8289 -84.8586 334° Northwest 435 501 40,000  Level Atlanta Center
Wed 12:11:44 PM 34.9369 -84.9256 333° Northwest 435 501 40,000  Level Atlanta Center
Wed 12:12:44 PM 35.0469 -84.9928 333° Northwest 435 501 40,000  Level Atlanta Center
Wed 12:13:44 PM 35.1592 -85.0575 335° Northwest 435 501 40,000  Level Atlanta Center
Wed 12:14:44 PM 35.2669 -85.1250 333° Northwest 435 501 40,000  Level Atlanta Center
Wed 12:16:35 PM 35.4683 -85.2475 334° Northwest 421 484 40,000  Level Indianapolis Center
Wed 12:17:37 PM 35.5789 -85.3169 333° Northwest 441 507 40,000  Level Indianapolis Center
Wed 12:18:38 PM 35.6889 -85.3847 333° Northwest 439 505 40,000  Level Indianapolis Center
Wed 12:19:40 PM 35.7989 -85.4533 333° Northwest 438 504 40,000  Level Indianapolis Center
Wed 12:20:47 PM 35.9292 -85.5353 333° Northwest 437 503 40,000  Level Memphis Center
Wed 12:21:47 PM 36.0383 -85.6058 332° Northwest 442 509 40,000  Level Memphis Center
Wed 12:22:47 PM 36.1472 -85.6739 333° Northwest 442 509 40,000  Level Memphis Center
Wed 12:23:47 PM 36.2583 -85.7447 333° Northwest 442 509 40,000  Level Memphis Center
Wed 12:24:47 PM 36.3478 -85.7989 334° Northwest 442 509 40,000  Level Memphis Center
Wed 12:25:47 PM 36.4781 -85.8794 334° Northwest 442 509 40,000  Level Memphis Center
Wed 12:26:47 PM 36.5825 -85.9486 332° Northwest 442 509 40,000  Level Memphis Center
Wed 12:27:47 PM 36.6911 -86.0150 334° Northwest 436 502 40,000  Level Memphis Center
Wed 12:28:47 PM 36.8000 -86.0869 332° Northwest 436 502 40,000  Level Memphis Center
Wed 12:30:57 PM 37.0247 -86.2311 333° Northwest 423 487 40,000  Level Indianapolis Center
Wed 12:31:58 PM 37.1303 -86.2997 333° Northwest 423 487 40,000  Level Indianapolis Center
Wed 12:33:00 PM 37.2372 -86.3678 333° Northwest 426 490 40,000  Level Indianapolis Center
Wed 12:34:01 PM 37.3431 -86.4361 333° Northwest 425 489 40,000  Level Indianapolis Center
Wed 12:35:03 PM 37.4483 -86.5058 332° Northwest 424 488 40,000  Level Indianapolis Center
Wed 12:36:04 PM 37.5628 -86.5803 333° Northwest 428 493 40,000  Level Indianapolis Center
Wed 12:37:06 PM 37.6706 -86.6519 332° Northwest 432 497 40,000  Level Indianapolis Center
Wed 12:38:08 PM 37.7758 -86.7225 332° Northwest 427 491 40,000  Level Indianapolis Center
Wed 12:39:09 PM 37.8789 -86.7925 332° Northwest 422 486 40,000 -585 Level Indianapolis Center
Wed 12:40:11 PM 37.9811 -86.8606 332° Northwest 414 476 38,800 -1,122 Descending Indianapolis Center
Wed 12:41:12 PM 38.0867 -86.9311 332° Northwest 424 488 37,700 -927 Descending Indianapolis Center
Wed 12:42:14 PM 38.1994 -87.0058 332° Northwest 451 519 36,900 -1,210 Descending Indianapolis Center
Wed 12:43:16 PM 38.3278 -87.0922 332° Northwest 452 520 35,200 -1,561 Descending Indianapolis Center
Wed 12:44:17 PM 38.4369 -87.1661 332° Northwest 460 529 33,700 -1,805 Descending Indianapolis Center
Wed 12:45:19 PM 38.5522 -87.2442 332° Northwest 466 536 31,500 -2,293 Descending Indianapolis Center
Wed 12:46:20 PM 38.6675 -87.3228 332° Northwest 467 537 29,000 -2,341 Descending Indianapolis Center
Wed 12:47:22 PM 38.7728 -87.3947 332° Northwest 426 490 26,700 -2,146 Descending Indianapolis Center
Wed 12:48:23 PM 38.8744 -87.4642 332° Northwest 414 476 24,600 -2,000 Descending Indianapolis Center
Wed 12:49:25 PM 38.9714 -87.5300 332° Northwest 397 457 22,600 -2,195 Descending Indianapolis Center
Wed 12:50:26 PM 39.0911 -87.6131 332° Northwest 405 466 20,100 -2,195 Descending Indianapolis Center
Wed 12:51:28 PM 39.1811 -87.6772 331° Northwest 378 435 18,100 -1,887 Descending Indianapolis Center
Wed 12:52:30 PM 39.2731 -87.7383 333° Northwest 375 432 16,200 -1,512 Descending Indianapolis Center
Wed 12:53:31 PM 39.3622 -87.8006 332° Northwest 367 422 15,000 -585 Descending Indianapolis Center
Wed 12:54:33 PM 39.4389 -87.8536 332° Northwest 353 406 15,000  Level Indianapolis Center
Wed 12:55:34 PM 39.5381 -87.9239 331° Northwest 345 397 15,000  Level Indianapolis Center
Wed 12:56:36 PM 39.6258 -87.9847 332° Northwest 350 403 15,000 -878 Level Indianapolis Center
Wed 12:57:37 PM 39.7067 -88.0406 332° Northwest 331 381 13,200 -2,000 Descending Indianapolis Center
Wed 12:58:39 PM 39.7753 -88.0903 331° Northwest 289 333 10,900 -2,390 Descending Indianapolis Center
Wed 12:59:40 PM 39.8486 -88.0656 15° North 287 330 8,300 -2,870 Descending Indianapolis Center
Wed 01:00:11 PM 39.8819 -88.0453 25° Northeast 279 321 6,500 -1,871 Descending Chicago Center
Wed 01:01:13 PM 39.9539 -88.0083 21° North 270 311 5,400 -1,065 Descending Chicago Center
Wed 01:03:00 PM 40.0313 -88.2539 333° Northwest  Level Estimated
Wed 01:10:00 PM 40.0333 -88.2667 333° Northwest  Level FlightAware Approximate
Wed 01:11:00 PM 40.0388 -88.2778 333° Northwest  Level Estimated
Wed 01:12:00 PM 40.0388 -88.2778 333° Northwest  Level Estimated
Wed 01:13:00 PM 40.0388 -88.2778 333° Northwest  Level Estimated

Login

Don't have an account? Register now (free) for customized features, flight alerts, and more!